sensor_id;sensor_type;location;lat;lon;timestamp;P1;durP1;ratioP1;P2;durP2;ratioP2
56319;SDS011;42226;42.382;23.748;2023-09-19T00:00:57;11.77;;;8.05;;
56319;SDS011;42226;42.382;23.748;2023-09-19T00:03:25;9.18;;;8.23;;
56319;SDS011;42226;42.382;23.748;2023-09-19T00:05:57;8.85;;;8.05;;
56319;SDS011;42226;42.382;23.748;2023-09-19T00:08:26;8.88;;;8.13;;
56319;SDS011;42226;42.382;23.748;2023-09-19T00:10:54;9.48;;;8.57;;
56319;SDS011;42226;42.382;23.748;2023-09-19T00:13:22;8.50;;;7.72;;
56319;SDS011;42226;42.382;23.748;2023-09-19T00:15:51;11.52;;;7.88;;
56319;SDS011;42226;42.382;23.748;2023-09-19T00:18:21;8.63;;;7.88;;
56319;SDS011;42226;42.382;23.748;2023-09-19T00:20:50;8.70;;;7.90;;
56319;SDS011;42226;42.382;23.748;2023-09-19T00:23:17;9.95;;;8.35;;
56319;SDS011;42226;42.382;23.748;2023-09-19T00:25:45;8.45;;;7.75;;
56319;SDS011;42226;42.382;23.748;2023-09-19T00:28:12;9.10;;;8.30;;
56319;SDS011;42226;42.382;23.748;2023-09-19T00:30:45;9.23;;;8.35;;
56319;SDS011;42226;42.382;23.748;2023-09-19T00:33:15;9.30;;;8.50;;
56319;SDS011;42226;42.382;23.748;2023-09-19T00:35:51;9.27;;;8.35;;
56319;SDS011;42226;42.382;23.748;2023-09-19T00:38:20;8.30;;;7.57;;
56319;SDS011;42226;42.382;23.748;2023-09-19T00:40:53;8.57;;;7.95;;
56319;SDS011;42226;42.382;23.748;2023-09-19T00:43:25;9.50;;;8.48;;
56319;SDS011;42226;42.382;23.748;2023-09-19T00:45:54;17.00;;;9.68;;
56319;SDS011;42226;42.382;23.748;2023-09-19T00:48:23;9.50;;;8.50;;
56319;SDS011;42226;42.382;23.748;2023-09-19T00:50:54;9.40;;;8.38;;
56319;SDS011;42226;42.382;23.748;2023-09-19T00:53:31;11.27;;;8.45;;
56319;SDS011;42226;42.382;23.748;2023-09-19T00:56:00;9.70;;;8.57;;
56319;SDS011;42226;42.382;23.748;2023-09-19T00:58:34;12.00;;;8.57;;
56319;SDS011;42226;42.382;23.748;2023-09-19T01:01:03;9.68;;;8.73;;
56319;SDS011;42226;42.382;23.748;2023-09-19T01:03:33;9.27;;;8.35;;
56319;SDS011;42226;42.382;23.748;2023-09-19T01:06:02;9.50;;;8.30;;
56319;SDS011;42226;42.382;23.748;2023-09-19T01:08:30;9.07;;;8.27;;
56319;SDS011;42226;42.382;23.748;2023-09-19T01:17:00;9.30;;;8.38;;
56319;SDS011;42226;42.382;23.748;2023-09-19T01:20:08;8.82;;;8.02;;
56319;SDS011;42226;42.382;23.748;2023-09-19T01:23:05;8.65;;;7.93;;
56319;SDS011;42226;42.382;23.748;2023-09-19T01:31:11;9.10;;;8.27;;
56319;SDS011;42226;42.382;23.748;2023-09-19T01:34:01;12.98;;;9.00;;
56319;SDS011;42226;42.382;23.748;2023-09-19T01:36:31;9.80;;;8.80;;
56319;SDS011;42226;42.382;23.748;2023-09-19T01:39:03;9.90;;;8.18;;
56319;SDS011;42226;42.382;23.748;2023-09-19T01:44:40;9.80;;;8.90;;
56319;SDS011;42226;42.382;23.748;2023-09-19T01:47:42;8.90;;;8.02;;
56319;SDS011;42226;42.382;23.748;2023-09-19T01:50:28;8.88;;;8.07;;
56319;SDS011;42226;42.382;23.748;2023-09-19T01:56:08;8.50;;;7.80;;
56319;SDS011;42226;42.382;23.748;2023-09-19T01:58:48;8.60;;;7.80;;
56319;SDS011;42226;42.382;23.748;2023-09-19T02:01:22;7.70;;;7.10;;
56319;SDS011;42226;42.382;23.748;2023-09-19T02:03:52;8.68;;;7.88;;
56319;SDS011;42226;42.382;23.748;2023-09-19T02:06:21;9.00;;;8.20;;
56319;SDS011;42226;42.382;23.748;2023-09-19T02:08:51;9.07;;;8.20;;
56319;SDS011;42226;42.382;23.748;2023-09-19T02:11:19;8.88;;;8.10;;
56319;SDS011;42226;42.382;23.748;2023-09-19T02:13:47;8.88;;;8.05;;
56319;SDS011;42226;42.382;23.748;2023-09-19T02:16:19;8.70;;;8.00;;
56319;SDS011;42226;42.382;23.748;2023-09-19T02:18:48;10.98;;;8.88;;
56319;SDS011;42226;42.382;23.748;2023-09-19T02:21:16;9.82;;;8.80;;
56319;SDS011;42226;42.382;23.748;2023-09-19T02:23:44;9.20;;;8.40;;
56319;SDS011;42226;42.382;23.748;2023-09-19T02:26:13;10.00;;;8.85;;
56319;SDS011;42226;42.382;23.748;2023-09-19T02:28:42;8.82;;;7.93;;
56319;SDS011;42226;42.382;23.748;2023-09-19T02:31:09;8.90;;;8.02;;
56319;SDS011;42226;42.382;23.748;2023-09-19T02:33:37;9.00;;;8.02;;
56319;SDS011;42226;42.382;23.748;2023-09-19T02:36:05;9.52;;;8.57;;
56319;SDS011;42226;42.382;23.748;2023-09-19T02:38:32;8.85;;;8.05;;
56319;SDS011;42226;42.382;23.748;2023-09-19T02:41:00;9.77;;;8.82;;
56319;SDS011;42226;42.382;23.748;2023-09-19T02:43:28;17.17;;;8.60;;
56319;SDS011;42226;42.382;23.748;2023-09-19T02:45:56;9.63;;;8.82;;
56319;SDS011;42226;42.382;23.748;2023-09-19T02:48:23;9.45;;;8.48;;
56319;SDS011;42226;42.382;23.748;2023-09-19T02:50:51;9.38;;;8.48;;
56319;SDS011;42226;42.382;23.748;2023-09-19T02:53:19;9.55;;;8.48;;
56319;SDS011;42226;42.382;23.748;2023-09-19T02:55:47;9.50;;;8.50;;
56319;SDS011;42226;42.382;23.748;2023-09-19T02:58:15;10.35;;;9.27;;
56319;SDS011;42226;42.382;23.748;2023-09-19T03:00:44;10.27;;;9.38;;
56319;SDS011;42226;42.382;23.748;2023-09-19T03:03:17;9.27;;;8.48;;
56319;SDS011;42226;42.382;23.748;2023-09-19T03:05:44;9.38;;;8.57;;
56319;SDS011;42226;42.382;23.748;2023-09-19T03:08:13;9.77;;;8.77;;
56319;SDS011;42226;42.382;23.748;2023-09-19T03:10:41;9.30;;;8.50;;
56319;SDS011;42226;42.382;23.748;2023-09-19T03:13:13;11.50;;;9.43;;
56319;SDS011;42226;42.382;23.748;2023-09-19T03:15:41;9.35;;;8.45;;
56319;SDS011;42226;42.382;23.748;2023-09-19T03:18:12;10.32;;;9.05;;
56319;SDS011;42226;42.382;23.748;2023-09-19T03:20:39;12.60;;;9.07;;
56319;SDS011;42226;42.382;23.748;2023-09-19T03:23:06;10.18;;;9.07;;
56319;SDS011;42226;42.382;23.748;2023-09-19T03:25:34;9.10;;;8.30;;
56319;SDS011;42226;42.382;23.748;2023-09-19T03:28:01;9.73;;;8.82;;
56319;SDS011;42226;42.382;23.748;2023-09-19T03:30:32;9.45;;;8.55;;
56319;SDS011;42226;42.382;23.748;2023-09-19T03:33:00;9.88;;;8.60;;
56319;SDS011;42226;42.382;23.748;2023-09-19T03:35:27;10.07;;;9.05;;
56319;SDS011;42226;42.382;23.748;2023-09-19T03:37:54;8.90;;;8.10;;
56319;SDS011;42226;42.382;23.748;2023-09-19T03:40:21;13.15;;;8.68;;
56319;SDS011;42226;42.382;23.748;2023-09-19T03:42:51;9.80;;;8.90;;
56319;SDS011;42226;42.382;23.748;2023-09-19T03:45:18;9.75;;;8.60;;
56319;SDS011;42226;42.382;23.748;2023-09-19T03:47:46;10.85;;;9.07;;
56319;SDS011;42226;42.382;23.748;2023-09-19T03:50:15;8.82;;;8.13;;
56319;SDS011;42226;42.382;23.748;2023-09-19T03:52:43;9.00;;;8.20;;
56319;SDS011;42226;42.382;23.748;2023-09-19T03:55:11;8.73;;;7.88;;
56319;SDS011;42226;42.382;23.748;2023-09-19T03:57:38;12.95;;;9.07;;
56319;SDS011;42226;42.382;23.748;2023-09-19T04:00:07;9.73;;;8.80;;
56319;SDS011;42226;42.382;23.748;2023-09-19T04:02:37;9.73;;;8.43;;
56319;SDS011;42226;42.382;23.748;2023-09-19T04:05:05;9.20;;;8.38;;
56319;SDS011;42226;42.382;23.748;2023-09-19T04:07:32;11.23;;;9.90;;
56319;SDS011;42226;42.382;23.748;2023-09-19T04:10:00;9.73;;;8.82;;
56319;SDS011;42226;42.382;23.748;2023-09-19T04:12:29;9.82;;;8.95;;
56319;SDS011;42226;42.382;23.748;2023-09-19T04:14:58;9.55;;;8.65;;
56319;SDS011;42226;42.382;23.748;2023-09-19T04:17:24;8.70;;;7.88;;
56319;SDS011;42226;42.382;23.748;2023-09-19T04:19:53;9.35;;;8.15;;
56319;SDS011;42226;42.382;23.748;2023-09-19T04:22:20;8.90;;;8.10;;
56319;SDS011;42226;42.382;23.748;2023-09-19T04:24:47;9.30;;;8.00;;
56319;SDS011;42226;42.382;23.748;2023-09-19T04:27:13;9.32;;;8.27;;
56319;SDS011;42226;42.382;23.748;2023-09-19T04:29:40;9.35;;;8.45;;
56319;SDS011;42226;42.382;23.748;2023-09-19T04:32:08;14.20;;;8.70;;
56319;SDS011;42226;42.382;23.748;2023-09-19T04:34:38;9.60;;;8.48;;
56319;SDS011;42226;42.382;23.748;2023-09-19T04:37:06;9.35;;;8.48;;
56319;SDS011;42226;42.382;23.748;2023-09-19T04:39:33;9.15;;;8.25;;
56319;SDS011;42226;42.382;23.748;2023-09-19T04:42:01;9.20;;;8.35;;
56319;SDS011;42226;42.382;23.748;2023-09-19T04:44:30;9.43;;;8.63;;
56319;SDS011;42226;42.382;23.748;2023-09-19T04:46:57;9.13;;;8.43;;
56319;SDS011;42226;42.382;23.748;2023-09-19T04:49:25;9.38;;;8.50;;
56319;SDS011;42226;42.382;23.748;2023-09-19T04:51:51;9.75;;;8.95;;
56319;SDS011;42226;42.382;23.748;2023-09-19T04:54:20;9.38;;;8.48;;
56319;SDS011;42226;42.382;23.748;2023-09-19T04:56:48;8.77;;;7.93;;
56319;SDS011;42226;42.382;23.748;2023-09-19T04:59:15;8.68;;;7.88;;
56319;SDS011;42226;42.382;23.748;2023-09-19T05:01:41;10.55;;;8.15;;
56319;SDS011;42226;42.382;23.748;2023-09-19T05:04:09;9.50;;;8.57;;
56319;SDS011;42226;42.382;23.748;2023-09-19T05:06:37;10.02;;;8.77;;
56319;SDS011;42226;42.382;23.748;2023-09-19T05:09:04;9.32;;;8.50;;
56319;SDS011;42226;42.382;23.748;2023-09-19T05:11:32;9.05;;;8.25;;
56319;SDS011;42226;42.382;23.748;2023-09-19T05:14:00;8.70;;;8.00;;
56319;SDS011;42226;42.382;23.748;2023-09-19T05:16:29;9.32;;;8.35;;
56319;SDS011;42226;42.382;23.748;2023-09-19T05:19:00;8.63;;;7.93;;
56319;SDS011;42226;42.382;23.748;2023-09-19T05:21:30;9.60;;;7.97;;
56319;SDS011;42226;42.382;23.748;2023-09-19T05:23:56;8.93;;;8.02;;
56319;SDS011;42226;42.382;23.748;2023-09-19T05:26:23;12.30;;;7.85;;
56319;SDS011;42226;42.382;23.748;2023-09-19T05:28:50;8.88;;;8.07;;
56319;SDS011;42226;42.382;23.748;2023-09-19T05:31:18;8.88;;;8.18;;
56319;SDS011;42226;42.382;23.748;2023-09-19T05:33:46;10.27;;;9.38;;
56319;SDS011;42226;42.382;23.748;2023-09-19T05:36:14;9.10;;;8.27;;
56319;SDS011;42226;42.382;23.748;2023-09-19T05:38:43;9.23;;;8.32;;
56319;SDS011;42226;42.382;23.748;2023-09-19T05:41:10;8.55;;;7.80;;
56319;SDS011;42226;42.382;23.748;2023-09-19T05:43:40;8.68;;;7.90;;
56319;SDS011;42226;42.382;23.748;2023-09-19T05:46:07;8.13;;;7.40;;
56319;SDS011;42226;42.382;23.748;2023-09-19T05:48:35;8.73;;;7.68;;
56319;SDS011;42226;42.382;23.748;2023-09-19T05:51:02;8.30;;;7.45;;
56319;SDS011;42226;42.382;23.748;2023-09-19T05:53:30;7.85;;;7.25;;
56319;SDS011;42226;42.382;23.748;2023-09-19T05:55:56;8.45;;;7.70;;
56319;SDS011;42226;42.382;23.748;2023-09-19T05:58:27;8.20;;;7.50;;
56319;SDS011;42226;42.382;23.748;2023-09-19T06:00:53;8.60;;;7.80;;
56319;SDS011;42226;42.382;23.748;2023-09-19T06:03:23;11.60;;;7.82;;
56319;SDS011;42226;42.382;23.748;2023-09-19T06:09:02;8.48;;;7.72;;
56319;SDS011;42226;42.382;23.748;2023-09-19T06:11:31;8.93;;;8.13;;
56319;SDS011;42226;42.382;23.748;2023-09-19T06:14:00;9.00;;;8.00;;
56319;SDS011;42226;42.382;23.748;2023-09-19T06:16:29;8.95;;;8.15;;
56319;SDS011;42226;42.382;23.748;2023-09-19T06:18:57;11.65;;;8.18;;
56319;SDS011;42226;42.382;23.748;2023-09-19T06:21:27;9.82;;;8.82;;
56319;SDS011;42226;42.382;23.748;2023-09-19T06:23:55;9.13;;;8.23;;
56319;SDS011;42226;42.382;23.748;2023-09-19T06:26:23;8.95;;;8.05;;
56319;SDS011;42226;42.382;23.748;2023-09-19T06:28:53;9.38;;;8.45;;
56319;SDS011;42226;42.382;23.748;2023-09-19T06:31:22;8.00;;;7.20;;
56319;SDS011;42226;42.382;23.748;2023-09-19T06:33:52;8.73;;;7.80;;
56319;SDS011;42226;42.382;23.748;2023-09-19T06:36:19;8.15;;;7.45;;
56319;SDS011;42226;42.382;23.748;2023-09-19T06:38:48;8.73;;;7.78;;
56319;SDS011;42226;42.382;23.748;2023-09-19T06:41:17;8.38;;;7.57;;
56319;SDS011;42226;42.382;23.748;2023-09-19T06:43:45;8.45;;;7.75;;
56319;SDS011;42226;42.382;23.748;2023-09-19T06:49:04;7.00;;;6.40;;
56319;SDS011;42226;42.382;23.748;2023-09-19T06:51:32;7.53;;;6.93;;
56319;SDS011;42226;42.382;23.748;2023-09-19T06:54:01;7.10;;;6.50;;
56319;SDS011;42226;42.382;23.748;2023-09-19T06:56:31;7.80;;;6.80;;
56319;SDS011;42226;42.382;23.748;2023-09-19T06:58:59;7.57;;;6.88;;
56319;SDS011;42226;42.382;23.748;2023-09-19T07:01:28;8.00;;;7.30;;
56319;SDS011;42226;42.382;23.748;2023-09-19T07:03:58;7.63;;;6.97;;
56319;SDS011;42226;42.382;23.748;2023-09-19T07:06:25;7.50;;;6.82;;
56319;SDS011;42226;42.382;23.748;2023-09-19T07:13:23;7.30;;;6.20;;
56319;SDS011;42226;42.382;23.748;2023-09-19T07:15:51;7.40;;;6.70;;
56319;SDS011;42226;42.382;23.748;2023-09-19T07:18:20;7.03;;;6.32;;
56319;SDS011;42226;42.382;23.748;2023-09-19T07:20:48;7.00;;;6.45;;
56319;SDS011;42226;42.382;23.748;2023-09-19T07:23:21;7.13;;;6.43;;
56319;SDS011;42226;42.382;23.748;2023-09-19T07:25:49;6.68;;;6.07;;
56319;SDS011;42226;42.382;23.748;2023-09-19T07:28:16;8.63;;;6.40;;
56319;SDS011;42226;42.382;23.748;2023-09-19T07:30:44;6.50;;;6.00;;
56319;SDS011;42226;42.382;23.748;2023-09-19T07:33:12;6.90;;;6.20;;
56319;SDS011;42226;42.382;23.748;2023-09-19T07:35:40;6.85;;;6.18;;
56319;SDS011;42226;42.382;23.748;2023-09-19T07:38:12;7.13;;;6.10;;
56319;SDS011;42226;42.382;23.748;2023-09-19T07:40:39;6.55;;;6.05;;
56319;SDS011;42226;42.382;23.748;2023-09-19T07:43:05;6.78;;;6.25;;
56319;SDS011;42226;42.382;23.748;2023-09-19T07:45:35;6.68;;;6.18;;
56319;SDS011;42226;42.382;23.748;2023-09-19T07:48:03;7.03;;;6.38;;
56319;SDS011;42226;42.382;23.748;2023-09-19T07:50:33;7.30;;;6.05;;
56319;SDS011;42226;42.382;23.748;2023-09-19T07:53:03;6.57;;;6.07;;
56319;SDS011;42226;42.382;23.748;2023-09-19T07:55:31;7.07;;;6.38;;
56319;SDS011;42226;42.382;23.748;2023-09-19T07:57:59;7.15;;;6.43;;
56319;SDS011;42226;42.382;23.748;2023-09-19T08:00:27;6.25;;;5.75;;
56319;SDS011;42226;42.382;23.748;2023-09-19T08:02:58;6.45;;;5.95;;
56319;SDS011;42226;42.382;23.748;2023-09-19T08:05:26;6.70;;;6.05;;
56319;SDS011;42226;42.382;23.748;2023-09-19T08:07:53;6.50;;;5.90;;
56319;SDS011;42226;42.382;23.748;2023-09-19T08:10:22;6.13;;;5.55;;
56319;SDS011;42226;42.382;23.748;2023-09-19T08:12:53;6.47;;;5.80;;
56319;SDS011;42226;42.382;23.748;2023-09-19T08:15:24;6.60;;;6.10;;
56319;SDS011;42226;42.382;23.748;2023-09-19T08:17:53;6.50;;;5.90;;
56319;SDS011;42226;42.382;23.748;2023-09-19T08:20:20;6.65;;;5.90;;
56319;SDS011;42226;42.382;23.748;2023-09-19T08:22:48;6.57;;;5.97;;
56319;SDS011;42226;42.382;23.748;2023-09-19T08:25:21;7.25;;;6.50;;
56319;SDS011;42226;42.382;23.748;2023-09-19T08:27:49;7.25;;;6.55;;
56319;SDS011;42226;42.382;23.748;2023-09-19T08:30:16;6.60;;;5.97;;
56319;SDS011;42226;42.382;23.748;2023-09-19T08:33:02;8.52;;;6.22;;
56319;SDS011;42226;42.382;23.748;2023-09-19T08:35:30;6.60;;;6.00;;
56319;SDS011;42226;42.382;23.748;2023-09-19T08:37:57;6.20;;;5.70;;
56319;SDS011;42226;42.382;23.748;2023-09-19T08:40:26;7.32;;;6.00;;
56319;SDS011;42226;42.382;23.748;2023-09-19T08:42:56;6.95;;;5.93;;
56319;SDS011;42226;42.382;23.748;2023-09-19T08:45:24;6.35;;;5.75;;
56319;SDS011;42226;42.382;23.748;2023-09-19T08:50:31;7.75;;;6.38;;
56319;SDS011;42226;42.382;23.748;2023-09-19T08:53:07;6.13;;;5.57;;
56319;SDS011;42226;42.382;23.748;2023-09-19T08:55:40;6.30;;;5.70;;
56319;SDS011;42226;42.382;23.748;2023-09-19T08:58:09;7.13;;;6.25;;
56319;SDS011;42226;42.382;23.748;2023-09-19T09:00:40;6.05;;;5.32;;
56319;SDS011;42226;42.382;23.748;2023-09-19T09:03:09;6.60;;;6.00;;
56319;SDS011;42226;42.382;23.748;2023-09-19T09:05:38;7.82;;;6.07;;
56319;SDS011;42226;42.382;23.748;2023-09-19T09:08:11;7.53;;;5.75;;
56319;SDS011;42226;42.382;23.748;2023-09-19T09:10:39;6.82;;;5.97;;
56319;SDS011;42226;42.382;23.748;2023-09-19T09:13:07;10.63;;;6.03;;
56319;SDS011;42226;42.382;23.748;2023-09-19T09:15:36;6.82;;;5.75;;
56319;SDS011;42226;42.382;23.748;2023-09-19T09:18:04;6.00;;;5.50;;
56319;SDS011;42226;42.382;23.748;2023-09-19T09:20:31;6.97;;;5.93;;
56319;SDS011;42226;42.382;23.748;2023-09-19T09:22:59;6.28;;;5.78;;
56319;SDS011;42226;42.382;23.748;2023-09-19T09:25:50;6.28;;;5.75;;
56319;SDS011;42226;42.382;23.748;2023-09-19T09:28:23;7.28;;;5.50;;
56319;SDS011;42226;42.382;23.748;2023-09-19T09:30:55;6.00;;;5.50;;
56319;SDS011;42226;42.382;23.748;2023-09-19T09:33:23;6.72;;;6.05;;
56319;SDS011;42226;42.382;23.748;2023-09-19T09:36:01;7.03;;;5.70;;
56319;SDS011;42226;42.382;23.748;2023-09-19T09:38:42;6.63;;;5.93;;
56319;SDS011;42226;42.382;23.748;2023-09-19T09:41:13;6.35;;;5.75;;
56319;SDS011;42226;42.382;23.748;2023-09-19T09:43:53;6.95;;;5.50;;
56319;SDS011;42226;42.382;23.748;2023-09-19T09:46:20;6.70;;;6.10;;
56319;SDS011;42226;42.382;23.748;2023-09-19T09:51:43;6.65;;;5.95;;
56319;SDS011;42226;42.382;23.748;2023-09-19T09:55:02;7.13;;;6.00;;
56319;SDS011;42226;42.382;23.748;2023-09-19T09:57:31;6.30;;;5.72;;
56319;SDS011;42226;42.382;23.748;2023-09-19T10:00:00;6.40;;;5.90;;
56319;SDS011;42226;42.382;23.748;2023-09-19T10:02:38;6.75;;;6.10;;
56319;SDS011;42226;42.382;23.748;2023-09-19T10:05:17;6.13;;;5.53;;
56319;SDS011;42226;42.382;23.748;2023-09-19T10:07:50;7.20;;;5.68;;
56319;SDS011;42226;42.382;23.748;2023-09-19T10:10:31;8.23;;;6.22;;
56319;SDS011;42226;42.382;23.748;2023-09-19T10:13:22;6.38;;;5.78;;
56319;SDS011;42226;42.382;23.748;2023-09-19T10:15:55;7.38;;;5.88;;
56319;SDS011;42226;42.382;23.748;2023-09-19T10:18:24;6.57;;;5.88;;
56319;SDS011;42226;42.382;23.748;2023-09-19T10:20:53;6.95;;;6.25;;
56319;SDS011;42226;42.382;23.748;2023-09-19T10:23:21;6.13;;;5.53;;
56319;SDS011;42226;42.382;23.748;2023-09-19T10:25:52;6.95;;;6.28;;
56319;SDS011;42226;42.382;23.748;2023-09-19T10:28:20;6.45;;;5.85;;
56319;SDS011;42226;42.382;23.748;2023-09-19T10:30:49;6.40;;;5.78;;
56319;SDS011;42226;42.382;23.748;2023-09-19T10:33:21;6.18;;;5.68;;
56319;SDS011;42226;42.382;23.748;2023-09-19T10:35:56;6.50;;;5.90;;
56319;SDS011;42226;42.382;23.748;2023-09-19T10:38:26;7.65;;;6.20;;
56319;SDS011;42226;42.382;23.748;2023-09-19T10:40:55;6.13;;;5.53;;
56319;SDS011;42226;42.382;23.748;2023-09-19T10:43:27;6.63;;;6.03;;
56319;SDS011;42226;42.382;23.748;2023-09-19T10:46:00;6.20;;;5.70;;
56319;SDS011;42226;42.382;23.748;2023-09-19T10:48:32;6.47;;;5.88;;
56319;SDS011;42226;42.382;23.748;2023-09-19T10:51:09;6.13;;;5.60;;
56319;SDS011;42226;42.382;23.748;2023-09-19T10:56:52;6.40;;;5.90;;
56319;SDS011;42226;42.382;23.748;2023-09-19T10:59:24;6.38;;;5.75;;
56319;SDS011;42226;42.382;23.748;2023-09-19T11:02:15;6.50;;;5.90;;
56319;SDS011;42226;42.382;23.748;2023-09-19T11:04:44;6.47;;;5.97;;
56319;SDS011;42226;42.382;23.748;2023-09-19T11:07:14;6.57;;;6.03;;
56319;SDS011;42226;42.382;23.748;2023-09-19T11:09:46;6.43;;;5.82;;
56319;SDS011;42226;42.382;23.748;2023-09-19T11:15:03;6.38;;;5.70;;
56319;SDS011;42226;42.382;23.748;2023-09-19T11:17:33;6.07;;;5.57;;
56319;SDS011;42226;42.382;23.748;2023-09-19T11:30:47;6.18;;;5.57;;
56319;SDS011;42226;42.382;23.748;2023-09-19T11:33:16;6.55;;;5.93;;
56319;SDS011;42226;42.382;23.748;2023-09-19T11:43:52;7.57;;;5.80;;
56319;SDS011;42226;42.382;23.748;2023-09-19T11:46:35;6.03;;;5.53;;
56319;SDS011;42226;42.382;23.748;2023-09-19T11:49:24;6.20;;;5.60;;
56319;SDS011;42226;42.382;23.748;2023-09-19T11:52:01;5.97;;;5.43;;
56319;SDS011;42226;42.382;23.748;2023-09-19T11:54:35;8.82;;;5.57;;
56319;SDS011;42226;42.382;23.748;2023-09-19T11:57:06;6.22;;;5.63;;
56319;SDS011;42226;42.382;23.748;2023-09-19T11:59:38;6.00;;;5.55;;
56319;SDS011;42226;42.382;23.748;2023-09-19T12:02:06;6.07;;;5.43;;
56319;SDS011;42226;42.382;23.748;2023-09-19T12:07:10;6.20;;;5.65;;
56319;SDS011;42226;42.382;23.748;2023-09-19T12:12:10;7.60;;;6.10;;
56319;SDS011;42226;42.382;23.748;2023-09-19T12:14:55;5.75;;;5.32;;
56319;SDS011;42226;42.382;23.748;2023-09-19T12:17:35;6.93;;;5.85;;
56319;SDS011;42226;42.382;23.748;2023-09-19T12:20:09;8.00;;;6.13;;
56319;SDS011;42226;42.382;23.748;2023-09-19T12:25:10;6.22;;;5.68;;
56319;SDS011;42226;42.382;23.748;2023-09-19T12:27:44;6.43;;;5.93;;
56319;SDS011;42226;42.382;23.748;2023-09-19T12:30:31;6.10;;;5.60;;
56319;SDS011;42226;42.382;23.748;2023-09-19T12:33:02;6.05;;;5.45;;
56319;SDS011;42226;42.382;23.748;2023-09-19T12:35:30;6.10;;;5.55;;
56319;SDS011;42226;42.382;23.748;2023-09-19T12:38:02;6.00;;;5.40;;
56319;SDS011;42226;42.382;23.748;2023-09-19T12:42:37;6.07;;;5.57;;
56319;SDS011;42226;42.382;23.748;2023-09-19T12:45:04;6.03;;;5.43;;
56319;SDS011;42226;42.382;23.748;2023-09-19T12:47:39;6.30;;;5.55;;
56319;SDS011;42226;42.382;23.748;2023-09-19T12:50:28;5.88;;;5.40;;
56319;SDS011;42226;42.382;23.748;2023-09-19T12:52:56;5.95;;;5.35;;
56319;SDS011;42226;42.382;23.748;2023-09-19T12:55:27;5.82;;;5.32;;
56319;SDS011;42226;42.382;23.748;2023-09-19T13:00:45;6.10;;;5.50;;
56319;SDS011;42226;42.382;23.748;2023-09-19T13:06:01;6.88;;;5.32;;
56319;SDS011;42226;42.382;23.748;2023-09-19T13:08:30;6.97;;;5.63;;
56319;SDS011;42226;42.382;23.748;2023-09-19T13:11:02;6.32;;;5.60;;
56319;SDS011;42226;42.382;23.748;2023-09-19T13:16:13;5.80;;;5.30;;
56319;SDS011;42226;42.382;23.748;2023-09-19T13:18:49;6.07;;;5.18;;
56319;SDS011;42226;42.382;23.748;2023-09-19T13:21:29;5.72;;;5.22;;
56319;SDS011;42226;42.382;23.748;2023-09-19T13:24:21;5.97;;;5.28;;
56319;SDS011;42226;42.382;23.748;2023-09-19T13:26:54;5.80;;;5.30;;
56319;SDS011;42226;42.382;23.748;2023-09-19T13:29:21;6.20;;;5.70;;
56319;SDS011;42226;42.382;23.748;2023-09-19T13:31:49;5.85;;;5.40;;
56319;SDS011;42226;42.382;23.748;2023-09-19T13:34:20;5.88;;;5.40;;
56319;SDS011;42226;42.382;23.748;2023-09-19T13:36:47;6.55;;;5.53;;
56319;SDS011;42226;42.382;23.748;2023-09-19T13:39:15;6.05;;;5.55;;
56319;SDS011;42226;42.382;23.748;2023-09-19T13:41:47;5.63;;;5.22;;
56319;SDS011;42226;42.382;23.748;2023-09-19T13:44:14;5.70;;;5.20;;
56319;SDS011;42226;42.382;23.748;2023-09-19T13:46:44;6.80;;;5.50;;
56319;SDS011;42226;42.382;23.748;2023-09-19T13:49:12;5.88;;;5.38;;
56319;SDS011;42226;42.382;23.748;2023-09-19T13:51:40;5.80;;;5.30;;
56319;SDS011;42226;42.382;23.748;2023-09-19T13:54:10;6.03;;;5.53;;
56319;SDS011;42226;42.382;23.748;2023-09-19T13:56:38;5.88;;;5.45;;
56319;SDS011;42226;42.382;23.748;2023-09-19T13:59:05;6.93;;;5.47;;
56319;SDS011;42226;42.382;23.748;2023-09-19T14:01:33;5.88;;;5.05;;
56319;SDS011;42226;42.382;23.748;2023-09-19T14:04:00;5.78;;;5.28;;
56319;SDS011;42226;42.382;23.748;2023-09-19T14:06:27;9.10;;;5.10;;
56319;SDS011;42226;42.382;23.748;2023-09-19T14:08:55;8.35;;;5.95;;
56319;SDS011;42226;42.382;23.748;2023-09-19T14:11:22;6.30;;;5.70;;
56319;SDS011;42226;42.382;23.748;2023-09-19T14:13:49;5.70;;;5.20;;
56319;SDS011;42226;42.382;23.748;2023-09-19T14:16:17;5.80;;;5.20;;
56319;SDS011;42226;42.382;23.748;2023-09-19T14:18:45;5.90;;;5.40;;
56319;SDS011;42226;42.382;23.748;2023-09-19T14:21:13;8.32;;;5.53;;
56319;SDS011;42226;42.382;23.748;2023-09-19T14:23:40;6.18;;;5.55;;
56319;SDS011;42226;42.382;23.748;2023-09-19T14:26:09;5.78;;;5.15;;
56319;SDS011;42226;42.382;23.748;2023-09-19T14:28:38;6.80;;;5.40;;
56319;SDS011;42226;42.382;23.748;2023-09-19T14:31:06;7.40;;;5.40;;
56319;SDS011;42226;42.382;23.748;2023-09-19T14:33:36;6.57;;;5.90;;
56319;SDS011;42226;42.382;23.748;2023-09-19T14:36:07;6.15;;;5.45;;
56319;SDS011;42226;42.382;23.748;2023-09-19T14:38:36;6.32;;;5.75;;
56319;SDS011;42226;42.382;23.748;2023-09-19T14:41:06;5.90;;;5.40;;
56319;SDS011;42226;42.382;23.748;2023-09-19T14:43:32;5.93;;;5.43;;
56319;SDS011;42226;42.382;23.748;2023-09-19T14:46:05;6.10;;;5.50;;
56319;SDS011;42226;42.382;23.748;2023-09-19T14:48:36;6.55;;;5.90;;
56319;SDS011;42226;42.382;23.748;2023-09-19T14:51:04;7.75;;;5.50;;
56319;SDS011;42226;42.382;23.748;2023-09-19T14:53:34;7.10;;;5.60;;
56319;SDS011;42226;42.382;23.748;2023-09-19T14:56:06;7.72;;;5.65;;
56319;SDS011;42226;42.382;23.748;2023-09-19T14:58:34;6.38;;;5.57;;
56319;SDS011;42226;42.382;23.748;2023-09-19T15:01:11;6.57;;;5.63;;
56319;SDS011;42226;42.382;23.748;2023-09-19T15:03:39;7.35;;;5.68;;
56319;SDS011;42226;42.382;23.748;2023-09-19T15:06:12;7.00;;;5.78;;
56319;SDS011;42226;42.382;23.748;2023-09-19T15:08:42;7.00;;;5.72;;
56319;SDS011;42226;42.382;23.748;2023-09-19T15:11:14;7.60;;;5.40;;
56319;SDS011;42226;42.382;23.748;2023-09-19T15:13:47;7.47;;;6.07;;
56319;SDS011;42226;42.382;23.748;2023-09-19T15:16:17;6.55;;;5.90;;
56319;SDS011;42226;42.382;23.748;2023-09-19T15:18:45;6.47;;;5.97;;
56319;SDS011;42226;42.382;23.748;2023-09-19T15:21:14;6.10;;;5.60;;
56319;SDS011;42226;42.382;23.748;2023-09-19T15:23:42;6.47;;;5.85;;
56319;SDS011;42226;42.382;23.748;2023-09-19T15:26:11;10.02;;;5.70;;
56319;SDS011;42226;42.382;23.748;2023-09-19T15:28:45;8.55;;;5.95;;
56319;SDS011;42226;42.382;23.748;2023-09-19T15:31:14;6.40;;;5.80;;
56319;SDS011;42226;42.382;23.748;2023-09-19T15:33:41;7.78;;;5.95;;
56319;SDS011;42226;42.382;23.748;2023-09-19T15:36:12;7.78;;;6.18;;
56319;SDS011;42226;42.382;23.748;2023-09-19T15:41:29;7.45;;;6.13;;
56319;SDS011;42226;42.382;23.748;2023-09-19T15:43:58;9.50;;;6.53;;
56319;SDS011;42226;42.382;23.748;2023-09-19T15:46:30;8.50;;;6.80;;
56319;SDS011;42226;42.382;23.748;2023-09-19T15:49:02;8.50;;;6.13;;
56319;SDS011;42226;42.382;23.748;2023-09-19T15:51:30;7.47;;;6.40;;
56319;SDS011;42226;42.382;23.748;2023-09-19T15:53:58;7.95;;;6.65;;
56319;SDS011;42226;42.382;23.748;2023-09-19T15:56:26;6.80;;;6.00;;
56319;SDS011;42226;42.382;23.748;2023-09-19T15:58:54;7.78;;;6.20;;
56319;SDS011;42226;42.382;23.748;2023-09-19T16:01:23;11.77;;;6.30;;
56319;SDS011;42226;42.382;23.748;2023-09-19T16:03:51;7.65;;;6.45;;
56319;SDS011;42226;42.382;23.748;2023-09-19T16:06:24;11.68;;;6.78;;
56319;SDS011;42226;42.382;23.748;2023-09-19T16:08:53;8.60;;;6.13;;
56319;SDS011;42226;42.382;23.748;2023-09-19T16:11:27;8.88;;;6.82;;